Bountiful, Colorado
Current Conditions -  °F | °C
As of 5:52 AM on Saturday 25 Oct 2014 (Local Time) from KALS Reporting Station
Clear Clear  
Wind Chill: -4°   Ceiling: Unl
Heat Index: -4°   Visibility: 10mi
Dew Point: -6°   Wind: 0mph
Humidity: 85%   Direction: NA
Pressure: 30.4"   Gusts: NA
Location:  37.3121°N, 106.036°W
Report Text: KALS 251152Z AUTO 00000KT 10SM CLR M04/M06 A3040 RMK AO2 SLP256 T10391061 10022 21044 56002
Loading
Personal Weather Stations






























Interactive Weather Map
Tropical Storm Tracking
New forecast layout! Learn more

10-Day Weather Forecast

Advertisements
Track Severe Weather on mobile